Time;durP1;ratioP1;P1;durP2;ratioP2;P2;SDS_P1;SDS_P2;PMS_P1;PMS_P2;Temp;Humidity;BMP_temperature;BMP_pressure;BME280_temperature;BME280_humidity;BME280_pressure;Samples;Min_cycle;Max_cycle;Signal;HPM_P1;HPM_P2
2023/04/15 00:00:29;;;;;;;;;;;;;;;4.94;100.00;99382.63;5587058;31;34892;-69
2023/04/15 00:03:33;;;;;;;;;;;;;;;5.03;100.00;99378.28;5573264;31;34445;-70
2023/04/15 00:06:36;;;;;;;;;;;;;;;5.08;100.00;99376.78;5576451;31;34281;-69
2023/04/15 00:09:39;;;;;;;;;;;;;;;5.09;100.00;99380.25;5567447;32;33956;-69
2023/04/15 00:12:41;;;;;;;;;;;;;;;5.25;100.00;99382.97;5571654;31;35232;-70
2023/04/15 00:15:44;;;;;;;;;;;;;;;5.19;100.00;99387.03;5585578;31;33878;-70
2023/04/15 00:18:46;;;;;;;;;;;;;;;5.23;100.00;99379.66;5574476;31;34688;-70
2023/04/15 00:21:49;;;;;;;;;;;;;;;5.21;100.00;99386.88;5567514;32;34750;-70
2023/04/15 00:24:52;;;;;;;;;;;;;;;5.19;100.00;99379.16;5567142;32;34459;-70
2023/04/15 00:27:55;;;;;;;;;;;;;;;5.19;100.00;99389.66;5566646;32;33990;-70
2023/04/15 00:30:58;;;;;;;;;;;;;;;5.24;100.00;99382.13;5567200;32;33754;-70
2023/04/15 00:34:01;;;;;;;;;;;;;;;5.32;100.00;99384.00;5567104;32;34712;-71
2023/04/15 00:37:03;;;;;;;;;;;;;;;5.33;100.00;99372.47;5567118;32;34902;-70
2023/04/15 00:40:11;;;;;;;;;;;;;;;5.30;100.00;99380.69;5566938;32;34702;-70
2023/04/15 00:43:13;;;;;;;;;;;;;;;5.20;100.00;99379.97;5566047;32;34212;-70
2023/04/15 00:46:16;;;;;;;;;;;;;;;5.19;100.00;99378.31;5566896;32;34104;-70
2023/04/15 00:49:19;;;;;;;;;;;;;;;5.23;100.00;99375.22;5567236;32;33991;-70
2023/04/15 00:52:21;;;;;;;;;;;;;;;5.29;100.00;99370.31;5566937;32;34061;-70
2023/04/15 00:55:25;;;;;;;;;;;;;;;5.22;100.00;99370.13;5566742;32;34853;-70
2023/04/15 00:58:28;;;;;;;;;;;;;;;5.28;100.00;99377.38;5566921;32;35158;-70
2023/04/15 01:01:30;;;;;;;;;;;;;;;5.11;100.00;99373.88;5565638;32;34929;-70
2023/04/15 01:04:33;;;;;;;;;;;;;;;5.05;100.00;99371.03;5566533;32;33769;-70
2023/04/15 01:07:35;;;;;;;;;;;;;;;5.01;100.00;99373.16;5566448;32;34824;-70
2023/04/15 01:10:38;;;;;;;;;;;;;;;5.15;100.00;99369.94;5566260;32;34045;-69
2023/04/15 01:13:41;;;;;;;;;;;;;;;5.22;100.00;99357.00;5566390;32;34234;-69
2023/04/15 01:16:44;;;;;;;;;;;;;;;5.31;100.00;99357.84;5566674;32;33921;-70
2023/04/15 01:19:47;;;;;;;;;;;;;;;5.17;100.00;99354.00;5566289;32;33717;-70
2023/04/15 01:22:50;;;;;;;;;;;;;;;5.12;100.00;99349.22;5566243;32;34154;-70
2023/04/15 01:25:53;;;;;;;;;;;;;;;5.23;100.00;99356.81;5566098;32;34995;-70
2023/04/15 01:28:56;;;;;;;;;;;;;;;5.23;100.00;99353.34;5565991;32;33858;-70
2023/04/15 01:31:59;;;;;;;;;;;;;;;5.20;100.00;99353.69;5566320;32;33872;-69
2023/04/15 01:35:01;;;;;;;;;;;;;;;5.24;100.00;99362.91;5566451;32;34104;-70
2023/04/15 01:38:05;;;;;;;;;;;;;;;5.21;100.00;99366.69;5566037;32;34152;-70
2023/04/15 01:41:07;;;;;;;;;;;;;;;5.28;100.00;99368.69;5568196;32;34168;-70
2023/04/15 01:44:10;;;;;;;;;;;;;;;5.20;100.00;99359.78;5568535;32;34685;-70
2023/04/15 01:47:14;;;;;;;;;;;;;;;5.04;100.00;99372.84;5568901;32;34143;-70
2023/04/15 01:50:16;;;;;;;;;;;;;;;5.19;100.00;99370.44;5568601;32;34066;-70
2023/04/15 01:53:20;;;;;;;;;;;;;;;5.33;100.00;99369.00;5568564;32;34167;-70
2023/04/15 01:56:25;;;;;;;;;;;;;;;5.25;100.00;99369.81;5568565;32;34396;-70
2023/04/15 01:59:30;;;;;;;;;;;;;;;5.25;100.00;99361.94;5568615;32;34827;-69
2023/04/15 02:02:33;;;;;;;;;;;;;;;5.11;100.00;99368.63;5567820;32;34262;-70
2023/04/15 02:05:36;;;;;;;;;;;;;;;5.15;100.00;99369.94;5567924;32;34037;-70
2023/04/15 02:08:38;;;;;;;;;;;;;;;5.38;100.00;99370.19;5568718;32;34859;-69
2023/04/15 02:11:42;;;;;;;;;;;;;;;5.30;100.00;99372.78;5568509;32;34198;-68
2023/04/15 02:14:44;;;;;;;;;;;;;;;5.28;100.00;99369.47;5554658;32;33870;-69
2023/04/15 02:17:49;;;;;;;;;;;;;;;5.19;100.00;99368.63;5568534;32;34218;-69
2023/04/15 02:20:52;;;;;;;;;;;;;;;5.22;100.00;99370.97;5554952;32;34806;-68
2023/04/15 02:23:56;;;;;;;;;;;;;;;5.30;100.00;99372.78;5568213;32;34537;-69
2023/04/15 02:26:58;;;;;;;;;;;;;;;5.31;100.00;99371.81;5568292;32;34356;-69
2023/04/15 02:30:01;;;;;;;;;;;;;;;5.37;100.00;99367.72;5568115;32;34055;-69
2023/04/15 02:33:03;;;;;;;;;;;;;;;5.28;100.00;99369.47;5568206;32;34435;-69
2023/04/15 02:36:07;;;;;;;;;;;;;;;5.27;100.00;99372.28;5568266;32;34211;-70
2023/04/15 02:39:10;;;;;;;;;;;;;;;5.24;100.00;99381.31;5554249;32;33989;-70
2023/04/15 02:42:12;;;;;;;;;;;;;;;5.31;100.00;99378.88;5568498;32;34890;-70
2023/04/15 02:45:15;;;;;;;;;;;;;;;5.25;100.00;99385.59;5568001;32;34294;-70
2023/04/15 02:48:19;;;;;;;;;;;;;;;5.36;100.00;99382.69;5567984;32;34032;-70
2023/04/15 02:51:21;;;;;;;;;;;;;;;5.36;100.00;99382.69;5567853;32;34683;-70
2023/04/15 02:54:25;;;;;;;;;;;;;;;5.55;100.00;99387.69;5567983;32;34894;-70
2023/04/15 02:57:28;;;;;;;;;;;;;;;5.55;100.00;99389.47;5568196;32;35117;-70
2023/04/15 03:00:32;;;;;;;;;;;;;;;5.45;100.00;99379.09;5568011;32;34062;-70
2023/04/15 03:03:34;;;;;;;;;;;;;;;5.52;100.00;99374.81;5568372;32;34079;-70
2023/04/15 03:06:45;;;;;;;;;;;;;;;5.38;100.00;99372.81;5568013;32;34191;-69
2023/04/15 03:09:47;;;;;;;;;;;;;;;5.43;100.00;99375.78;5568022;32;33968;-69
2023/04/15 03:12:50;;;;;;;;;;;;;;;5.55;100.00;99369.25;5567235;32;34318;-70
2023/04/15 03:15:53;;;;;;;;;;;;;;;5.51;100.00;99369.75;5568426;32;34298;-69
2023/04/15 03:18:56;;;;;;;;;;;;;;;5.57;100.00;99372.53;5567882;32;34177;-69
2023/04/15 03:21:59;;;;;;;;;;;;;;;5.65;100.00;99366.50;5554457;32;34896;-70
2023/04/15 03:25:02;;;;;;;;;;;;;;;5.53;100.00;99362.50;5567846;32;34097;-69
2023/04/15 03:28:06;;;;;;;;;;;;;;;5.59;100.00;99365.31;5567772;32;34809;-69
2023/04/15 03:31:09;;;;;;;;;;;;;;;5.73;100.00;99371.75;5567784;32;34158;-69
2023/04/15 03:34:11;;;;;;;;;;;;;;;5.71;100.00;99362.41;5567883;32;34264;-69
2023/04/15 03:37:14;;;;;;;;;;;;;;;5.68;100.00;99368.78;5567929;32;34089;-69
2023/04/15 03:40:16;;;;;;;;;;;;;;;5.64;100.00;99373.56;5554044;32;34416;-69
2023/04/15 03:43:19;;;;;;;;;;;;;;;5.70;100.00;99374.72;5567667;32;34792;-69
2023/04/15 03:46:21;;;;;;;;;;;;;;;5.73;100.00;99382.28;5567696;32;34003;-69
2023/04/15 03:49:24;;;;;;;;;;;;;;;5.69;100.00;99378.34;5567532;32;34337;-69
2023/04/15 03:52:26;;;;;;;;;;;;;;;5.75;100.00;99379.50;5567595;32;34199;-69
2023/04/15 03:55:29;;;;;;;;;;;;;;;5.85;100.00;99372.28;5567669;32;33839;-69
2023/04/15 03:58:31;;;;;;;;;;;;;;;5.80;100.00;99372.78;5567598;32;34162;-69
2023/04/15 04:01:34;;;;;;;;;;;;;;;5.66;100.00;99373.41;5566698;32;34289;-69
2023/04/15 04:04:37;;;;;;;;;;;;;;;5.60;100.00;99372.25;5567121;32;34140;-69
2023/04/15 04:07:39;;;;;;;;;;;;;;;5.58;100.00;99368.94;5569978;31;34609;-68
2023/04/15 04:10:42;;;;;;;;;;;;;;;5.59;100.00;99367.13;5576799;31;34348;-68
2023/04/15 04:13:44;;;;;;;;;;;;;;;5.58;100.00;99358.41;5586986;31;34580;-68
2023/04/15 04:16:47;;;;;;;;;;;;;;;5.56;100.00;99359.56;5587308;31;33888;-69
2023/04/15 04:19:49;;;;;;;;;;;;;;;5.58;100.00;99368.09;5586915;31;34161;-69
2023/04/15 04:22:52;;;;;;;;;;;;;;;5.61;100.00;99368.63;5587014;31;33928;-69
2023/04/15 04:25:54;;;;;;;;;;;;;;;5.69;100.00;99362.56;5586797;31;33946;-69
2023/04/15 04:28:56;;;;;;;;;;;;;;;5.89;100.00;99365.75;5572828;31;34172;-69
2023/04/15 04:31:59;;;;;;;;;;;;;;;5.89;100.00;99358.69;5586844;31;34063;-69
2023/04/15 04:35:02;;;;;;;;;;;;;;;5.95;100.00;99370.38;5572734;31;34706;-69
2023/04/15 04:38:05;;;;;;;;;;;;;;;5.99;100.00;99369.06;5572681;31;34629;-69
2023/04/15 04:41:07;;;;;;;;;;;;;;;6.01;100.00;99367.06;5586753;31;34130;-69
2023/04/15 04:44:10;;;;;;;;;;;;;;;6.23;100.00;99369.06;5572562;31;34007;-69
2023/04/15 04:47:12;;;;;;;;;;;;;;;6.20;100.00;99366.75;5586594;31;34848;-69
2023/04/15 04:50:17;;;;;;;;;;;;;;;6.36;100.00;99369.37;5586255;31;34103;-69
2023/04/15 04:53:19;;;;;;;;;;;;;;;6.47;100.00;99371.69;5586405;31;34365;-69
2023/04/15 04:56:22;;;;;;;;;;;;;;;6.58;100.00;99362.63;5586339;31;34148;-68
2023/04/15 04:59:25;;;;;;;;;;;;;;;6.70;100.00;99369.19;5572309;31;34939;-69
2023/04/15 05:02:27;;;;;;;;;;;;;;;6.78;100.00;99376.22;5586157;31;34929;-69
2023/04/15 05:05:30;;;;;;;;;;;;;;;7.17;100.00;99376.28;5585966;31;35412;-69
2023/04/15 05:08:33;;;;;;;;;;;;;;;7.33;100.00;99369.16;5586153;31;33995;-69
2023/04/15 05:11:35;;;;;;;;;;;;;;;7.56;100.00;99377.13;5585948;31;33939;-70
2023/04/15 05:14:38;;;;;;;;;;;;;;;7.71;100.00;99390.41;5587843;31;34895;-69
2023/04/15 05:17:41;;;;;;;;;;;;;;;7.91;100.00;99382.84;5588601;31;32792;-69
2023/04/15 05:20:44;;;;;;;;;;;;;;;8.05;100.00;99375.00;5584595;31;34840;-70
2023/04/15 05:23:46;;;;;;;;;;;;;;;8.33;100.00;99369.22;5556136;32;35559;-69
2023/04/15 05:26:48;;;;;;;;;;;;;;;8.51;100.00;99377.66;5568847;32;34264;-69
2023/04/15 05:29:51;;;;;;;;;;;;;;;8.45;100.00;99378.34;5554684;32;34986;-69
2023/04/15 05:32:53;;;;;;;;;;;;;;;8.29;100.00;99382.78;5568901;32;34259;-70
2023/04/15 05:35:56;;;;;;;;;;;;;;;8.55;100.00;99379.75;5568820;32;34657;-70
2023/04/15 05:38:58;;;;;;;;;;;;;;;8.59;100.00;99377.56;5568770;32;34807;-69
2023/04/15 05:42:02;;;;;;;;;;;;;;;8.22;100.00;99381.00;5554975;32;35025;-69
2023/04/15 05:45:07;;;;;;;;;;;;;;;8.21;100.00;99384.63;5568581;32;34822;-69
2023/04/15 05:48:10;;;;;;;;;;;;;;;7.80;100.00;99384.91;5568666;32;34602;-68
2023/04/15 05:51:13;;;;;;;;;;;;;;;7.70;100.00;99386.09;5568528;32;34045;-68
2023/04/15 05:54:16;;;;;;;;;;;;;;;7.67;100.00;99392.56;5568700;32;34279;-69
2023/04/15 05:57:21;;;;;;;;;;;;;;;7.73;100.00;99391.87;5567675;32;34179;-69
2023/04/15 06:00:24;;;;;;;;;;;;;;;7.76;100.00;99396.81;5554818;32;35122;-69
2023/04/15 06:03:26;;;;;;;;;;;;;;;7.71;100.00;99398.31;5568428;32;34637;-68
2023/04/15 06:06:29;;;;;;;;;;;;;;;7.79;100.00;99400.94;5568507;32;33916;-69
2023/04/15 06:09:32;;;;;;;;;;;;;;;7.69;100.00;99406.44;5568277;32;34065;-69
2023/04/15 06:12:35;;;;;;;;;;;;;;;7.75;100.00;99407.53;5568502;32;33987;-68
2023/04/15 06:15:37;;;;;;;;;;;;;;;7.68;100.00;99409.25;5568757;32;34105;-69
2023/04/15 06:18:40;;;;;;;;;;;;;;;8.03;100.00;99407.88;5568378;32;34341;-67
2023/04/15 06:21:43;;;;;;;;;;;;;;;8.46;100.00;99406.44;5568532;32;34993;-67
2023/04/15 06:24:45;;;;;;;;;;;;;;;8.64;100.00;99420.97;5570512;31;34061;-68
2023/04/15 06:27:48;;;;;;;;;;;;;;;8.85;100.00;99425.59;5587972;31;34209;-69
2023/04/15 06:30:51;;;;;;;;;;;;;;;9.05;100.00;99421.41;5587732;31;35848;-68
2023/04/15 06:33:54;;;;;;;;;;;;;;;9.19;100.00;99430.37;5588032;31;34688;-69
2023/04/15 06:36:56;;;;;;;;;;;;;;;9.24;100.00;99435.13;5587864;31;34842;-68
2023/04/15 06:39:59;;;;;;;;;;;;;;;8.80;100.00;99430.59;5587163;31;34136;-68
2023/04/15 06:43:01;;;;;;;;;;;;;;;8.55;100.00;99437.09;5588021;31;33991;-68
2023/04/15 06:46:04;;;;;;;;;;;;;;;8.97;100.00;99437.37;5555073;32;34898;-70
2023/04/15 06:49:07;;;;;;;;;;;;;;;9.59;100.00;99434.34;5568292;32;34043;-69
2023/04/15 06:52:10;;;;;;;;;;;;;;;9.84;100.00;99442.81;5568041;32;34389;-68
2023/04/15 06:55:13;;;;;;;;;;;;;;;9.51;100.00;99445.06;5554285;32;34838;-69
2023/04/15 06:58:16;;;;;;;;;;;;;;;9.92;100.00;99440.88;5571155;31;33905;-69
2023/04/15 07:01:19;;;;;;;;;;;;;;;10.30;100.00;99432.78;5566452;32;34060;-69
2023/04/15 07:04:21;;;;;;;;;;;;;;;11.17;100.00;99436.75;5568145;32;34911;-69
2023/04/15 07:07:24;;;;;;;;;;;;;;;11.69;100.00;99446.03;5568238;32;34156;-69
2023/04/15 07:10:27;;;;;;;;;;;;;;;11.91;100.00;99438.78;5567642;32;34218;-70
2023/04/15 07:13:30;;;;;;;;;;;;;;;11.44;100.00;99442.22;5567664;32;34097;-68
2023/04/15 07:16:32;;;;;;;;;;;;;;;10.80;100.00;99439.72;5567044;32;34594;-68
2023/04/15 07:19:35;;;;;;;;;;;;;;;9.76;100.00;99441.09;5567407;32;33925;-69
2023/04/15 07:22:38;;;;;;;;;;;;;;;10.76;100.00;99441.94;5576857;31;33614;-69
2023/04/15 07:25:40;;;;;;;;;;;;;;;11.05;100.00;99440.94;5566351;32;34108;-68
2023/04/15 07:28:45;;;;;;;;;;;;;;;9.68;100.00;99443.88;5567846;32;33766;-68
2023/04/15 07:31:47;;;;;;;;;;;;;;;9.77;100.00;99444.59;5567623;32;34796;-69
2023/04/15 07:34:50;;;;;;;;;;;;;;;11.28;100.00;99440.69;5567003;32;34164;-69
2023/04/15 07:37:53;;;;;;;;;;;;;;;11.91;100.00;99444.91;5552693;32;34974;-69
2023/04/15 07:40:55;;;;;;;;;;;;;;;11.73;100.00;99456.09;5567632;32;35092;-68
2023/04/15 07:43:58;;;;;;;;;;;;;;;11.19;100.00;99455.94;5566891;32;34050;-69
2023/04/15 07:47:01;;;;;;;;;;;;;;;11.12;100.00;99456.94;5567290;32;34740;-69
2023/04/15 07:50:04;;;;;;;;;;;;;;;13.02;100.00;99462.09;5567347;32;34218;-68
2023/04/15 07:53:07;;;;;;;;;;;;;;;12.66;100.00;99459.00;5567179;31;33866;-69
2023/04/15 07:56:10;;;;;;;;;;;;;;;12.19;100.00;99456.28;5567583;31;34563;-69
2023/04/15 07:59:14;;;;;;;;;;;;;;;11.64;100.00;99443.13;5567173;32;34263;-68
2023/04/15 08:02:17;;;;;;;;;;;;;;;12.99;100.00;99452.66;5567557;32;34867;-69
2023/04/15 08:05:20;;;;;;;;;;;;;;;12.24;100.00;99445.03;5565818;31;34774;-68
2023/04/15 08:08:22;;;;;;;;;;;;;;;11.57;100.00;99442.31;5567462;32;34376;-69
2023/04/15 08:11:26;;;;;;;;;;;;;;;12.27;100.00;99441.97;5567495;32;34028;-68
2023/04/15 08:14:29;;;;;;;;;;;;;;;11.43;100.00;99451.19;5567012;32;34185;-67
2023/04/15 08:17:31;;;;;;;;;;;;;;;11.32;100.00;99453.41;5567046;32;34205;-67
2023/04/15 08:20:34;;;;;;;;;;;;;;;11.66;100.00;99449.09;5566796;32;34749;-67
2023/04/15 08:23:37;;;;;;;;;;;;;;;11.71;100.00;99441.34;5566873;32;34389;-67
2023/04/15 08:26:39;;;;;;;;;;;;;;;11.64;100.00;99454.59;5567119;32;34159;-67
2023/04/15 08:29:42;;;;;;;;;;;;;;;11.68;100.00;99460.31;5566849;32;34147;-67
2023/04/15 08:32:45;;;;;;;;;;;;;;;12.29;100.00;99457.72;5566659;32;34132;-68
2023/04/15 08:35:48;;;;;;;;;;;;;;;11.97;100.00;99460.06;5566617;32;34235;-68
2023/04/15 08:38:50;;;;;;;;;;;;;;;13.07;98.94;99465.75;5566882;32;34822;-68
2023/04/15 08:41:57;;;;;;;;;;;;;;;13.20;84.96;99464.97;5566762;32;34646;-68
2023/04/15 08:45:02;;;;;;;;;;;;;;;13.11;86.04;99468.88;5566575;32;34031;-66
2023/04/15 08:48:06;;;;;;;;;;;;;;;11.92;90.47;99470.47;5569021;31;34688;-68
2023/04/15 08:51:09;;;;;;;;;;;;;;;12.75;91.73;99466.56;5559588;32;34670;-69
2023/04/15 08:54:12;;;;;;;;;;;;;;;13.20;83.54;99472.12;5572404;32;34199;-67
2023/04/15 08:57:15;;;;;;;;;;;;;;;11.50;93.75;99471.47;5572969;32;34821;-68
2023/04/15 09:00:18;;;;;;;;;;;;;;;11.71;96.35;99474.03;5572257;32;34128;-67
2023/04/15 09:03:22;;;;;;;;;;;;;;;12.58;90.80;99474.16;5573012;32;34225;-69
2023/04/15 09:06:25;;;;;;;;;;;;;;;12.43;83.48;99486.81;5564709;31;35011;-68
2023/04/15 09:09:28;;;;;;;;;;;;;;;12.35;84.11;99473.69;5592557;31;35390;-68
2023/04/15 09:12:33;;;;;;;;;;;;;;;13.60;76.82;99479.03;5592402;31;34790;-66
2023/04/15 09:15:37;;;;;;;;;;;;;;;14.18;69.40;99474.50;5592339;31;34375;-67
2023/04/15 09:18:40;;;;;;;;;;;;;;;13.24;75.46;99484.84;5578815;31;34384;-69
2023/04/15 09:21:46;;;;;;;;;;;;;;;13.80;76.82;99478.94;5563295;31;34216;-68
2023/04/15 09:24:48;;;;;;;;;;;;;;;12.32;79.19;99474.09;5573023;31;33036;-67
2023/04/15 09:27:52;;;;;;;;;;;;;;;11.91;85.21;99479.47;5572428;31;35298;-69
2023/04/15 09:30:58;;;;;;;;;;;;;;;11.75;88.62;99477.97;5572329;31;34779;-68
2023/04/15 09:34:00;;;;;;;;;;;;;;;12.70;83.78;99478.84;5572202;32;34253;-69
2023/04/15 09:37:03;;;;;;;;;;;;;;;12.56;83.06;99476.19;5557818;32;34821;-70
2023/04/15 09:40:06;;;;;;;;;;;;;;;11.97;84.35;99475.19;5572277;32;34309;-70
2023/04/15 09:43:11;;;;;;;;;;;;;;;12.12;87.30;99466.06;5571955;32;33773;-69
2023/04/15 09:46:14;;;;;;;;;;;;;;;12.05;89.71;99465.19;5572027;32;34106;-69
2023/04/15 09:49:17;;;;;;;;;;;;;;;11.89;89.33;99470.88;5572084;32;34169;-69
2023/04/15 09:52:19;;;;;;;;;;;;;;;12.85;86.88;99474.97;5574505;31;34420;-67
2023/04/15 09:55:22;;;;;;;;;;;;;;;12.32;80.90;99473.25;5583255;31;34047;-69
2023/04/15 09:58:28;;;;;;;;;;;;;;;13.04;84.42;99476.00;5591393;31;33938;-70
2023/04/15 10:01:31;;;;;;;;;;;;;;;13.82;78.73;99474.25;5587933;31;34062;-70
2023/04/15 10:04:38;;;;;;;;;;;;;;;13.81;77.45;99480.59;5574165;31;34431;-70
2023/04/15 10:07:41;;;;;;;;;;;;;;;12.90;81.73;99477.03;5588141;31;33908;-68
2023/04/15 10:10:45;;;;;;;;;;;;;;;12.62;85.60;99488.69;5587505;31;34278;-69
2023/04/15 10:13:49;;;;;;;;;;;;;;;12.28;88.48;99480.84;5588060;31;34488;-68
2023/04/15 10:16:55;;;;;;;;;;;;;;;12.48;88.54;99492.34;5583745;31;34564;-69
2023/04/15 10:19:59;;;;;;;;;;;;;;;12.30;87.55;99488.59;5568747;31;34869;-68
2023/04/15 10:23:02;;;;;;;;;;;;;;;12.15;89.24;99486.12;5586449;31;34074;-69
2023/04/15 10:26:05;;;;;;;;;;;;;;;12.66;83.57;99494.41;5588055;31;34337;-68
2023/04/15 10:29:08;;;;;;;;;;;;;;;12.62;83.92;99496.66;5587977;31;34886;-70
2023/04/15 10:32:11;;;;;;;;;;;;;;;13.12;81.24;99491.78;5588005;31;34290;-68
2023/04/15 10:35:15;;;;;;;;;;;;;;;12.04;88.11;99492.00;5584787;31;34131;-69
2023/04/15 10:38:36;;;;;;;;;;;;;;;12.03;93.78;99498.31;5587882;31;34226;-69
2023/04/15 10:41:39;;;;;;;;;;;;;;;12.48;93.12;99494.19;5587506;31;34093;-69
2023/04/15 10:44:42;;;;;;;;;;;;;;;13.21;82.88;99497.75;5573479;31;34798;-69
2023/04/15 10:47:45;;;;;;;;;;;;;;;13.50;77.68;99499.97;5587398;31;34168;-68
2023/04/15 10:50:57;;;;;;;;;;;;;;;13.37;80.98;99497.31;5577905;31;34356;-68
2023/04/15 10:53:59;;;;;;;;;;;;;;;13.54;80.98;99503.03;5568390;32;34057;-70
2023/04/15 10:57:05;;;;;;;;;;;;;;;13.24;78.29;99503.47;5568092;32;34055;-68
2023/04/15 11:00:08;;;;;;;;;;;;;;;12.70;80.19;99508.94;5568318;32;33800;-69
2023/04/15 11:03:10;;;;;;;;;;;;;;;12.15;88.24;99512.72;5577310;31;34204;-69
2023/04/15 11:06:13;;;;;;;;;;;;;;;12.38;90.69;99509.72;5568017;32;34234;-68
2023/04/15 11:09:34;;;;;;;;;;;;;;;11.99;95.56;99519.19;5568316;32;34095;-68
2023/04/15 11:12:37;;;;;;;;;;;;;;;11.61;100.00;99516.09;5553778;32;34538;-67
2023/04/15 11:15:46;;;;;;;;;;;;;;;11.40;100.00;99516.16;5567917;32;34144;-68
2023/04/15 11:18:55;;;;;;;;;;;;;;;11.29;100.00;99520.16;5567898;32;34396;-68
2023/04/15 11:22:05;;;;;;;;;;;;;;;10.94;100.00;99517.62;5567686;32;34254;-68
2023/04/15 11:25:08;;;;;;;;;;;;;;;10.65;100.00;99515.94;5569505;31;34421;-68
2023/04/15 11:28:11;;;;;;;;;;;;;;;11.59;100.00;99522.59;5570411;31;34230;-68
2023/04/15 11:31:16;;;;;;;;;;;;;;;12.12;100.00;99519.22;5567916;32;34616;-68
2023/04/15 11:34:22;;;;;;;;;;;;;;;12.54;100.00;99512.81;5567757;32;34236;-69
2023/04/15 11:37:28;;;;;;;;;;;;;;;14.17;89.91;99523.56;5567938;32;34960;-68
2023/04/15 11:40:32;;;;;;;;;;;;;;;15.02;79.09;99516.09;5567682;32;34204;-68
2023/04/15 11:43:35;;;;;;;;;;;;;;;15.75;73.27;99526.97;5553885;32;34170;-67
2023/04/15 11:46:37;;;;;;;;;;;;;;;16.65;66.13;99531.47;5567344;32;34251;-67
2023/04/15 11:49:40;;;;;;;;;;;;;;;15.93;67.21;99526.97;5567592;32;34804;-67
2023/04/15 11:52:53;;;;;;;;;;;;;;;14.21;73.19;99535.44;5567457;32;34087;-68
2023/04/15 11:55:55;;;;;;;;;;;;;;;13.47;85.06;99530.50;5553772;32;35285;-67
2023/04/15 11:58:58;;;;;;;;;;;;;;;13.30;86.79;99537.28;5565688;32;34600;-71
2023/04/15 12:02:10;;;;;;;;;;;;;;;12.83;89.60;99521.47;5551725;32;34865;-67
2023/04/15 12:05:13;;;;;;;;;;;;;;;12.22;94.50;99523.34;5566454;32;33874;-68
2023/04/15 12:08:16;;;;;;;;;;;;;;;12.33;94.81;99523.59;5566175;32;35937;-67
2023/04/15 12:11:19;;;;;;;;;;;;;;;12.58;89.21;99530.03;5552906;32;34012;-67
2023/04/15 12:14:25;;;;;;;;;;;;;;;12.00;92.17;99531.47;5567116;31;34290;-68
2023/04/15 12:17:28;;;;;;;;;;;;;;;11.85;97.34;99528.09;5567096;32;33866;-67
2023/04/15 12:20:50;;;;;;;;;;;;;;;12.89;92.12;99529.44;5567241;32;34417;-67
2023/04/15 12:23:56;;;;;;;;;;;;;;;13.68;82.46;99529.44;5566347;32;34820;-68
2023/04/15 12:27:04;;;;;;;;;;;;;;;14.00;79.45;99534.88;5567330;32;34133;-68
2023/04/15 12:30:07;;;;;;;;;;;;;;;14.13;82.63;99530.34;5567210;32;34161;-68
2023/04/15 12:33:10;;;;;;;;;;;;;;;13.75;80.16;99537.41;5580579;31;34150;-67
2023/04/15 12:36:13;;;;;;;;;;;;;;;13.18;85.40;99538.09;5572736;31;34208;-67
2023/04/15 12:39:15;;;;;;;;;;;;;;;13.16;84.91;99537.50;5575141;31;34623;-67
2023/04/15 12:42:18;;;;;;;;;;;;;;;12.94;87.32;99537.66;5577131;31;34562;-67
2023/04/15 12:45:21;;;;;;;;;;;;;;;12.13;91.53;99533.34;5566647;32;34194;-67
2023/04/15 12:48:23;;;;;;;;;;;;;;;12.02;96.35;99537.38;5566851;32;34208;-67
2023/04/15 12:51:26;;;;;;;;;;;;;;;11.81;98.34;99542.81;5567046;32;34280;-67
2023/04/15 12:54:29;;;;;;;;;;;;;;;11.61;99.77;99534.69;5557046;31;35080;-67
2023/04/15 12:57:31;;;;;;;;;;;;;;;11.12;99.88;99542.69;5566586;32;34127;-68
2023/04/15 13:00:34;;;;;;;;;;;;;;;11.43;100.00;99552.09;5566850;32;34204;-67
2023/04/15 13:03:37;;;;;;;;;;;;;;;11.26;100.00;99556.91;5566620;32;34827;-68
2023/04/15 13:06:40;;;;;;;;;;;;;;;11.24;100.00;99553.59;5566376;32;34454;-69
2023/04/15 13:09:43;;;;;;;;;;;;;;;11.48;100.00;99553.16;5565906;31;33734;-67
2023/04/15 13:12:48;;;;;;;;;;;;;;;11.14;100.00;99551.28;5565953;32;34069;-68
2023/04/15 13:15:51;;;;;;;;;;;;;;;11.72;99.49;99560.72;5566103;32;34273;-68
2023/04/15 13:18:54;;;;;;;;;;;;;;;12.17;99.51;99551.34;5566052;32;34686;-68
2023/04/15 13:21:56;;;;;;;;;;;;;;;11.85;99.16;99556.53;5571336;31;32552;-67
2023/04/15 13:24:59;;;;;;;;;;;;;;;11.56;99.20;99558.34;5585633;31;34010;-68
2023/04/15 13:28:02;;;;;;;;;;;;;;;12.06;97.77;99556.41;5585632;31;34200;-68
2023/04/15 13:31:04;;;;;;;;;;;;;;;12.42;91.87;99558.81;5585272;31;34676;-68
2023/04/15 13:34:07;;;;;;;;;;;;;;;11.77;96.08;99558.31;5585180;31;34160;-68
2023/04/15 13:37:09;;;;;;;;;;;;;;;12.36;95.14;99559.59;5574069;31;34760;-67
2023/04/15 13:40:12;;;;;;;;;;;;;;;11.95;95.73;99562.31;5588255;31;35161;-67
2023/04/15 13:43:15;;;;;;;;;;;;;;;11.61;100.00;99571.06;5588167;31;34259;-68
2023/04/15 13:46:17;;;;;;;;;;;;;;;11.28;100.00;99557.50;5588058;31;34716;-68
2023/04/15 13:49:20;;;;;;;;;;;;;;;11.16;100.00;99565.19;5587874;31;34453;-68
2023/04/15 13:52:22;;;;;;;;;;;;;;;11.14;100.00;99571.69;5587971;31;34049;-67
2023/04/15 13:55:25;;;;;;;;;;;;;;;11.19;100.00;99575.41;5587028;31;34392;-67
2023/04/15 13:58:30;;;;;;;;;;;;;;;11.97;99.47;99573.53;5588483;31;34311;-67
2023/04/15 14:01:33;;;;;;;;;;;;;;;12.40;92.84;99576.81;5588414;31;35023;-67
2023/04/15 14:04:37;;;;;;;;;;;;;;;12.15;95.75;99579.19;5588216;31;33980;-67
2023/04/15 14:07:39;;;;;;;;;;;;;;;12.25;97.80;99576.94;5587906;31;34777;-67
2023/04/15 14:10:47;;;;;;;;;;;;;;;12.05;94.97;99578.72;5587882;31;34726;-67
2023/04/15 14:13:49;;;;;;;;;;;;;;;11.99;99.88;99575.00;5587989;31;34044;-67
2023/04/15 14:16:52;;;;;;;;;;;;;;;11.84;100.00;99581.44;5588055;31;34618;-68
2023/04/15 14:19:54;;;;;;;;;;;;;;;11.80;100.00;99586.34;5588023;31;34645;-67
2023/04/15 14:22:57;;;;;;;;;;;;;;;11.97;99.62;99594.81;5568150;32;34827;-68
2023/04/15 14:26:00;;;;;;;;;;;;;;;11.86;100.00;99590.06;5568117;32;33775;-67
2023/04/15 14:29:02;;;;;;;;;;;;;;;12.37;100.00;99593.19;5568426;32;34335;-68
2023/04/15 14:32:05;;;;;;;;;;;;;;;12.31;94.35;99592.13;5569731;31;34911;-68
2023/04/15 14:35:14;;;;;;;;;;;;;;;12.40;93.75;99592.75;5585942;31;33827;-68
2023/04/15 14:38:16;;;;;;;;;;;;;;;12.11;98.62;99591.19;5587732;31;35634;-68
2023/04/15 14:41:19;;;;;;;;;;;;;;;12.02;100.00;99603.00;5585603;31;34289;-68
2023/04/15 14:44:22;;;;;;;;;;;;;;;11.85;100.00;99599.88;5562447;31;232167;-68
2023/04/15 14:47:25;;;;;;;;;;;;;;;11.52;100.00;99598.78;5553831;32;34694;-68
2023/04/15 14:50:27;;;;;;;;;;;;;;;11.37;100.00;99603.34;5567725;31;34889;-67
2023/04/15 14:53:30;;;;;;;;;;;;;;;11.15;100.00;99611.31;5586707;31;34240;-68
2023/04/15 14:56:33;;;;;;;;;;;;;;;11.33;100.00;99611.69;5557391;32;34087;-67
2023/04/15 14:59:35;;;;;;;;;;;;;;;11.20;100.00;99614.22;5579556;31;33962;-67
2023/04/15 15:02:38;;;;;;;;;;;;;;;11.13;100.00;99615.19;5587663;31;33901;-68
2023/04/15 15:05:43;;;;;;;;;;;;;;;11.31;100.00;99602.28;5587676;31;34348;-67
2023/04/15 15:08:45;;;;;;;;;;;;;;;11.31;100.00;99607.59;5587537;31;34462;-68
2023/04/15 15:11:48;;;;;;;;;;;;;;;11.22;100.00;99609.56;5587366;31;34123;-67
2023/04/15 15:14:51;;;;;;;;;;;;;;;11.10;100.00;99608.41;5587380;31;34239;-67
2023/04/15 15:17:54;;;;;;;;;;;;;;;11.25;100.00;99609.16;5587523;31;35077;-67
2023/04/15 15:20:57;;;;;;;;;;;;;;;11.33;100.00;99614.34;5587159;31;34289;-66
2023/04/15 15:24:00;;;;;;;;;;;;;;;10.98;100.00;99620.56;5587605;31;34624;-67
2023/04/15 15:27:02;;;;;;;;;;;;;;;11.08;100.00;99623.72;5573957;31;34100;-67
2023/04/15 15:30:05;;;;;;;;;;;;;;;11.14;100.00;99622.94;5586542;31;34182;-68
2023/04/15 15:33:08;;;;;;;;;;;;;;;10.88;100.00;99628.00;5567726;32;33919;-67
2023/04/15 15:36:11;;;;;;;;;;;;;;;11.00;100.00;99634.44;5558876;32;34119;-67
2023/04/15 15:39:13;;;;;;;;;;;;;;;11.06;100.00;99638.19;5578821;31;34876;-67
2023/04/15 15:42:17;;;;;;;;;;;;;;;10.99;100.00;99646.06;5577796;31;34500;-67
2023/04/15 15:45:20;;;;;;;;;;;;;;;11.15;100.00;99648.50;5555685;32;34578;-67
2023/04/15 15:48:23;;;;;;;;;;;;;;;11.24;100.00;99655.31;5568056;32;34012;-67
2023/04/15 15:51:26;;;;;;;;;;;;;;;11.26;100.00;99655.12;5553699;32;34002;-67